Berga II — 7TQI — position and weather

sailwx.info

Track history (hours):
 
Tides and Currents Weather Stations Pressure Air Temp Water Temp Dewpoint Dewpoint Depression Visibility Wind Speed Wind Dir Waves Ship Positions

Berga II

Last reported at 2017-Oct-30 11:10 UTC. Time now 2017-Nov-19 18:15 UTC.
Position N 36°44' E 013°31'.
Warning: this ship's position is 20 days out of date.

Length 174 m; draft 6.8 m.

Type: Ship (hazmat cat B). MMSI: 605076051.

Date/timePositionNaut miles runAvg speedWind from/ knotsBaromVisibWave heightAir tempDewpointWater temp
2017-Oct-30 11:10N 36°44' E 013°31'511.7
2017-Oct-30 10:44N 36°42' E 013°36'311.7
2017-Oct-30 10:27N 36°41' E 013°40'612.0
2017-Oct-30 09:58N 36°38' E 013°47'511.9
2017-Oct-30 09:30N 36°36' E 013°53'611.6
2017-Oct-30 09:00N 36°33' E 013°59'611.8
2017-Oct-30 08:30N 36°30' E 014°06'612.0
2017-Oct-30 08:00N 36°28' E 014°13'612.3
2017-Oct-30 07:30N 36°25' E 014°20'612.4
2017-Oct-30 07:00N 36°23' E 014°26'612.5
2017-Oct-30 06:30N 36°21' E 014°34'612.6
2017-Oct-30 05:59N 36°19' E 014°42'612.6
2017-Oct-30 05:29N 36°17' E 014°49'  
2017-Oct-26 19:42N 35°22' E 031°07'314.0
2017-Oct-26 19:31N 35°23' E 031°10'  
2017-Oct-21 16:01N 35°38' E 033°07'114.6
2017-Oct-21 15:57N 35°38' E 033°06'3314.5
2017-Oct-21 13:40N 35°30' E 032°26'214.7
2017-Oct-21 13:30N 35°30' E 032°24'814.7
2017-Oct-21 12:57N 35°29' E 032°14'4414.6
2017-Oct-21 09:56N 35°22' E 031°20'714.4
2017-Oct-21 09:29N 35°20' E 031°12'714.2
2017-Oct-21 08:58N 35°19' E 031°04'714.4
2017-Oct-21 08:30N 35°18' E 030°56'714.3
2017-Oct-21 08:00N 35°17' E 030°47'714.4
2017-Oct-21 07:30N 35°15' E 030°38'  
Track history (hours):
 
Tides and Currents Weather Stations Pressure Air Temp Water Temp Dewpoint Dewpoint Depression Visibility Wind Speed Wind Dir Waves Ship Positions

Berga II

Last reported at 2017-Oct-30 11:10 UTC. Time now 2017-Nov-19 18:15 UTC.
Position N 36°44' E 013°31'.
Warning: this ship's position is 20 days out of date.

Length 174 m; draft 6.8 m.

Type: Ship (hazmat cat B). MMSI: 605076051.

Date/timePositionNaut miles runAvg speedWind from/ knotsBaromVisibWave heightAir tempDewpointWater temp
2017-Oct-30 11:10N 36°44' E 013°31'511.7
2017-Oct-30 10:44N 36°42' E 013°36'311.7
2017-Oct-30 10:27N 36°41' E 013°40'612.0
2017-Oct-30 09:58N 36°38' E 013°47'511.9
2017-Oct-30 09:30N 36°36' E 013°53'611.6
2017-Oct-30 09:00N 36°33' E 013°59'611.8
2017-Oct-30 08:30N 36°30' E 014°06'612.0
2017-Oct-30 08:00N 36°28' E 014°13'612.3
2017-Oct-30 07:30N 36°25' E 014°20'612.4
2017-Oct-30 07:00N 36°23' E 014°26'612.5
2017-Oct-30 06:30N 36°21' E 014°34'612.6
2017-Oct-30 05:59N 36°19' E 014°42'612.6
2017-Oct-30 05:29N 36°17' E 014°49'  
2017-Oct-26 19:42N 35°22' E 031°07'314.0
2017-Oct-26 19:31N 35°23' E 031°10'  
2017-Oct-21 16:01N 35°38' E 033°07'114.6
2017-Oct-21 15:57N 35°38' E 033°06'3314.5
2017-Oct-21 13:40N 35°30' E 032°26'214.7
2017-Oct-21 13:30N 35°30' E 032°24'814.7
2017-Oct-21 12:57N 35°29' E 032°14'4414.6
2017-Oct-21 09:56N 35°22' E 031°20'714.4
2017-Oct-21 09:29N 35°20' E 031°12'714.2
2017-Oct-21 08:58N 35°19' E 031°04'714.4
2017-Oct-21 08:30N 35°18' E 030°56'714.3
2017-Oct-21 08:00N 35°17' E 030°47'714.4
2017-Oct-21 07:30N 35°15' E 030°38'  

Dump ship's entire track history